sensor_id;sensor_type;location;lat;lon;timestamp;P1;durP1;ratioP1;P2;durP2;ratioP2
56307;SDS011;42217;50.422;7.210;2023-04-19T00:01:36;142.17;;;135.37;;
56307;SDS011;42217;50.422;7.210;2023-04-19T00:04:03;142.00;;;135.27;;
56307;SDS011;42217;50.422;7.210;2023-04-19T00:06:29;140.33;;;133.30;;
56307;SDS011;42217;50.422;7.210;2023-04-19T00:08:55;150.77;;;143.67;;
56307;SDS011;42217;50.422;7.210;2023-04-19T00:11:21;151.57;;;144.30;;
56307;SDS011;42217;50.422;7.210;2023-04-19T00:13:48;138.80;;;131.97;;
56307;SDS011;42217;50.422;7.210;2023-04-19T00:16:13;144.60;;;137.87;;
56307;SDS011;42217;50.422;7.210;2023-04-19T00:18:40;147.93;;;140.93;;
56307;SDS011;42217;50.422;7.210;2023-04-19T00:21:06;150.87;;;143.77;;
56307;SDS011;42217;50.422;7.210;2023-04-19T00:23:33;150.53;;;143.43;;
56307;SDS011;42217;50.422;7.210;2023-04-19T00:26:01;150.37;;;143.27;;
56307;SDS011;42217;50.422;7.210;2023-04-19T00:28:28;153.07;;;145.77;;
56307;SDS011;42217;50.422;7.210;2023-04-19T00:30:54;134.97;;;128.57;;
56307;SDS011;42217;50.422;7.210;2023-04-19T00:33:20;149.80;;;142.87;;
56307;SDS011;42217;50.422;7.210;2023-04-19T00:35:46;152.67;;;145.30;;
56307;SDS011;42217;50.422;7.210;2023-04-19T00:38:11;149.47;;;142.00;;
56307;SDS011;42217;50.422;7.210;2023-04-19T00:40:37;147.43;;;140.33;;
56307;SDS011;42217;50.422;7.210;2023-04-19T00:43:03;146.60;;;139.73;;
56307;SDS011;42217;50.422;7.210;2023-04-19T00:45:29;150.90;;;143.80;;
56307;SDS011;42217;50.422;7.210;2023-04-19T00:47:59;148.33;;;141.40;;
56307;SDS011;42217;50.422;7.210;2023-04-19T00:50:25;143.60;;;136.83;;
56307;SDS011;42217;50.422;7.210;2023-04-19T00:52:52;147.90;;;141.00;;
56307;SDS011;42217;50.422;7.210;2023-04-19T00:55:19;154.67;;;146.63;;
56307;SDS011;42217;50.422;7.210;2023-04-19T00:57:45;146.70;;;139.70;;
56307;SDS011;42217;50.422;7.210;2023-04-19T01:00:12;136.77;;;130.20;;
56307;SDS011;42217;50.422;7.210;2023-04-19T01:02:39;143.63;;;136.83;;
56307;SDS011;42217;50.422;7.210;2023-04-19T01:05:05;149.80;;;142.70;;
56307;SDS011;42217;50.422;7.210;2023-04-19T01:07:31;149.47;;;142.57;;
56307;SDS011;42217;50.422;7.210;2023-04-19T01:09:58;148.17;;;140.90;;
56307;SDS011;42217;50.422;7.210;2023-04-19T01:12:23;145.63;;;138.77;;
56307;SDS011;42217;50.422;7.210;2023-04-19T01:14:49;153.17;;;145.93;;
56307;SDS011;42217;50.422;7.210;2023-04-19T01:17:14;146.93;;;140.10;;
56307;SDS011;42217;50.422;7.210;2023-04-19T01:19:40;142.90;;;136.20;;
56307;SDS011;42217;50.422;7.210;2023-04-19T01:22:06;151.20;;;144.10;;
56307;SDS011;42217;50.422;7.210;2023-04-19T01:24:32;148.47;;;141.60;;
56307;SDS011;42217;50.422;7.210;2023-04-19T01:26:58;145.70;;;138.80;;
56307;SDS011;42217;50.422;7.210;2023-04-19T01:29:24;144.80;;;138.10;;
56307;SDS011;42217;50.422;7.210;2023-04-19T01:31:49;146.93;;;140.00;;
56307;SDS011;42217;50.422;7.210;2023-04-19T01:34:17;148.63;;;141.63;;
56307;SDS011;42217;50.422;7.210;2023-04-19T01:36:44;151.67;;;144.63;;
56307;SDS011;42217;50.422;7.210;2023-04-19T01:39:10;138.67;;;131.97;;
56307;SDS011;42217;50.422;7.210;2023-04-19T01:41:35;144.83;;;138.17;;
56307;SDS011;42217;50.422;7.210;2023-04-19T01:44:01;147.10;;;140.07;;
56307;SDS011;42217;50.422;7.210;2023-04-19T01:46:27;146.27;;;139.40;;
56307;SDS011;42217;50.422;7.210;2023-04-19T01:48:53;143.73;;;136.77;;
56307;SDS011;42217;50.422;7.210;2023-04-19T01:51:19;148.43;;;141.30;;
56307;SDS011;42217;50.422;7.210;2023-04-19T01:53:46;145.83;;;138.57;;
56307;SDS011;42217;50.422;7.210;2023-04-19T01:56:16;151.10;;;143.80;;
56307;SDS011;42217;50.422;7.210;2023-04-19T01:58:42;148.60;;;141.37;;
56307;SDS011;42217;50.422;7.210;2023-04-19T02:01:07;152.80;;;145.30;;
56307;SDS011;42217;50.422;7.210;2023-04-19T02:03:36;158.23;;;150.53;;
56307;SDS011;42217;50.422;7.210;2023-04-19T02:06:08;142.27;;;135.53;;
56307;SDS011;42217;50.422;7.210;2023-04-19T02:08:36;160.43;;;152.67;;
56307;SDS011;42217;50.422;7.210;2023-04-19T02:11:09;148.97;;;141.73;;
56307;SDS011;42217;50.422;7.210;2023-04-19T02:13:36;149.93;;;142.60;;
56307;SDS011;42217;50.422;7.210;2023-04-19T02:16:02;149.60;;;142.17;;
56307;SDS011;42217;50.422;7.210;2023-04-19T02:18:30;159.47;;;151.63;;
56307;SDS011;42217;50.422;7.210;2023-04-19T02:21:00;159.00;;;151.33;;
56307;SDS011;42217;50.422;7.210;2023-04-19T02:23:25;155.03;;;147.50;;
56307;SDS011;42217;50.422;7.210;2023-04-19T02:25:52;158.10;;;150.20;;
56307;SDS011;42217;50.422;7.210;2023-04-19T02:28:17;156.73;;;149.10;;
56307;SDS011;42217;50.422;7.210;2023-04-19T02:30:43;157.10;;;149.50;;
56307;SDS011;42217;50.422;7.210;2023-04-19T02:33:09;153.50;;;145.87;;
56307;SDS011;42217;50.422;7.210;2023-04-19T02:35:34;153.73;;;146.20;;
56307;SDS011;42217;50.422;7.210;2023-04-19T02:38:01;159.23;;;151.47;;
56307;SDS011;42217;50.422;7.210;2023-04-19T02:40:27;151.67;;;144.23;;
56307;SDS011;42217;50.422;7.210;2023-04-19T02:42:53;151.33;;;143.63;;
56307;SDS011;42217;50.422;7.210;2023-04-19T02:45:19;156.70;;;148.53;;
56307;SDS011;42217;50.422;7.210;2023-04-19T02:47:45;143.27;;;136.03;;
56307;SDS011;42217;50.422;7.210;2023-04-19T02:50:11;154.83;;;146.97;;
56307;SDS011;42217;50.422;7.210;2023-04-19T02:52:37;156.10;;;148.53;;
56307;SDS011;42217;50.422;7.210;2023-04-19T02:55:03;160.23;;;152.53;;
56307;SDS011;42217;50.422;7.210;2023-04-19T02:57:30;158.30;;;150.53;;
56307;SDS011;42217;50.422;7.210;2023-04-19T02:59:56;168.97;;;160.67;;
56307;SDS011;42217;50.422;7.210;2023-04-19T03:02:22;161.03;;;152.73;;
56307;SDS011;42217;50.422;7.210;2023-04-19T03:04:51;163.13;;;155.40;;
56307;SDS011;42217;50.422;7.210;2023-04-19T03:07:17;165.33;;;157.13;;
56307;SDS011;42217;50.422;7.210;2023-04-19T03:09:43;167.40;;;159.13;;
56307;SDS011;42217;50.422;7.210;2023-04-19T03:12:09;168.37;;;160.00;;
56307;SDS011;42217;50.422;7.210;2023-04-19T03:14:35;173.70;;;165.20;;
56307;SDS011;42217;50.422;7.210;2023-04-19T03:17:01;176.10;;;167.50;;
56307;SDS011;42217;50.422;7.210;2023-04-19T03:19:27;177.33;;;168.60;;
56307;SDS011;42217;50.422;7.210;2023-04-19T03:21:53;176.83;;;167.93;;
56307;SDS011;42217;50.422;7.210;2023-04-19T03:24:19;174.10;;;165.47;;
56307;SDS011;42217;50.422;7.210;2023-04-19T03:26:50;164.55;;;156.38;;
56307;SDS011;42217;50.422;7.210;2023-04-19T03:29:16;167.57;;;159.13;;
56307;SDS011;42217;50.422;7.210;2023-04-19T03:31:42;173.90;;;165.33;;
56307;SDS011;42217;50.422;7.210;2023-04-19T03:34:07;176.13;;;167.33;;
56307;SDS011;42217;50.422;7.210;2023-04-19T03:36:33;173.73;;;165.00;;
56307;SDS011;42217;50.422;7.210;2023-04-19T03:38:58;163.23;;;155.20;;
56307;SDS011;42217;50.422;7.210;2023-04-19T03:41:24;168.93;;;160.57;;
56307;SDS011;42217;50.422;7.210;2023-04-19T03:43:51;169.67;;;161.17;;
56307;SDS011;42217;50.422;7.210;2023-04-19T03:46:17;165.70;;;157.00;;
56307;SDS011;42217;50.422;7.210;2023-04-19T03:48:42;167.37;;;159.33;;
56307;SDS011;42217;50.422;7.210;2023-04-19T03:51:08;172.17;;;163.47;;
56307;SDS011;42217;50.422;7.210;2023-04-19T03:53:34;162.50;;;154.43;;
56307;SDS011;42217;50.422;7.210;2023-04-19T03:56:01;162.83;;;154.77;;
56307;SDS011;42217;50.422;7.210;2023-04-19T03:58:26;154.57;;;146.77;;
56307;SDS011;42217;50.422;7.210;2023-04-19T04:00:52;159.20;;;151.00;;
56307;SDS011;42217;50.422;7.210;2023-04-19T04:03:18;144.50;;;137.23;;
56307;SDS011;42217;50.422;7.210;2023-04-19T04:05:43;155.97;;;147.93;;
56307;SDS011;42217;50.422;7.210;2023-04-19T04:08:09;148.43;;;140.90;;
56307;SDS011;42217;50.422;7.210;2023-04-19T04:10:35;154.80;;;146.87;;
56307;SDS011;42217;50.422;7.210;2023-04-19T04:13:01;153.40;;;145.80;;
56307;SDS011;42217;50.422;7.210;2023-04-19T04:15:26;145.20;;;138.00;;
56307;SDS011;42217;50.422;7.210;2023-04-19T04:17:52;146.57;;;139.20;;
56307;SDS011;42217;50.422;7.210;2023-04-19T04:20:18;146.33;;;138.97;;
56307;SDS011;42217;50.422;7.210;2023-04-19T04:22:44;144.53;;;137.33;;
56307;SDS011;42217;50.422;7.210;2023-04-19T04:25:11;146.00;;;138.50;;
56307;SDS011;42217;50.422;7.210;2023-04-19T04:27:37;145.30;;;137.87;;
56307;SDS011;42217;50.422;7.210;2023-04-19T04:30:04;144.40;;;137.00;;
56307;SDS011;42217;50.422;7.210;2023-04-19T04:32:30;143.17;;;135.90;;
56307;SDS011;42217;50.422;7.210;2023-04-19T04:35:00;147.97;;;140.30;;
56307;SDS011;42217;50.422;7.210;2023-04-19T04:37:26;154.80;;;147.10;;
56307;SDS011;42217;50.422;7.210;2023-04-19T04:39:52;153.40;;;145.77;;
56307;SDS011;42217;50.422;7.210;2023-04-19T04:42:17;159.37;;;151.03;;
56307;SDS011;42217;50.422;7.210;2023-04-19T04:44:45;157.03;;;148.90;;
56307;SDS011;42217;50.422;7.210;2023-04-19T04:47:12;151.73;;;143.83;;
56307;SDS011;42217;50.422;7.210;2023-04-19T04:49:38;157.10;;;149.37;;
56307;SDS011;42217;50.422;7.210;2023-04-19T04:52:03;155.50;;;147.27;;
56307;SDS011;42217;50.422;7.210;2023-04-19T04:54:30;159.50;;;151.30;;
56307;SDS011;42217;50.422;7.210;2023-04-19T04:56:57;162.67;;;154.60;;
56307;SDS011;42217;50.422;7.210;2023-04-19T04:59:23;167.93;;;159.60;;
56307;SDS011;42217;50.422;7.210;2023-04-19T05:01:48;172.33;;;163.67;;
56307;SDS011;42217;50.422;7.210;2023-04-19T05:04:14;163.37;;;155.20;;
56307;SDS011;42217;50.422;7.210;2023-04-19T05:06:40;166.53;;;157.80;;
56307;SDS011;42217;50.422;7.210;2023-04-19T05:09:06;160.23;;;152.37;;
56307;SDS011;42217;50.422;7.210;2023-04-19T05:11:32;164.17;;;155.77;;
56307;SDS011;42217;50.422;7.210;2023-04-19T05:13:58;149.53;;;142.20;;
56307;SDS011;42217;50.422;7.210;2023-04-19T05:16:25;162.23;;;153.53;;
56307;SDS011;42217;50.422;7.210;2023-04-19T05:18:51;153.73;;;145.93;;
56307;SDS011;42217;50.422;7.210;2023-04-19T05:21:16;153.00;;;145.10;;
56307;SDS011;42217;50.422;7.210;2023-04-19T05:23:42;173.13;;;164.60;;
56307;SDS011;42217;50.422;7.210;2023-04-19T05:26:08;162.60;;;153.93;;
56307;SDS011;42217;50.422;7.210;2023-04-19T05:28:38;163.97;;;155.40;;
56307;SDS011;42217;50.422;7.210;2023-04-19T05:31:04;170.60;;;161.63;;
56307;SDS011;42217;50.422;7.210;2023-04-19T05:33:31;181.13;;;172.00;;
56307;SDS011;42217;50.422;7.210;2023-04-19T05:35:56;180.33;;;171.37;;
56307;SDS011;42217;50.422;7.210;2023-04-19T05:38:22;177.90;;;168.50;;
56307;SDS011;42217;50.422;7.210;2023-04-19T05:40:48;168.40;;;159.03;;
56307;SDS011;42217;50.422;7.210;2023-04-19T05:43:13;164.33;;;155.90;;
56307;SDS011;42217;50.422;7.210;2023-04-19T05:45:39;160.47;;;152.40;;
56307;SDS011;42217;50.422;7.210;2023-04-19T05:48:05;162.13;;;153.87;;
56307;SDS011;42217;50.422;7.210;2023-04-19T05:50:31;155.20;;;147.50;;
56307;SDS011;42217;50.422;7.210;2023-04-19T05:52:56;157.90;;;150.03;;
56307;SDS011;42217;50.422;7.210;2023-04-19T05:55:22;153.30;;;145.47;;
56307;SDS011;42217;50.422;7.210;2023-04-19T05:57:48;146.80;;;139.37;;
56307;SDS011;42217;50.422;7.210;2023-04-19T06:00:14;147.57;;;140.20;;
56307;SDS011;42217;50.422;7.210;2023-04-19T06:02:40;147.90;;;140.53;;
56307;SDS011;42217;50.422;7.210;2023-04-19T06:05:07;148.70;;;141.07;;
56307;SDS011;42217;50.422;7.210;2023-04-19T06:07:33;147.10;;;139.67;;
56307;SDS011;42217;50.422;7.210;2023-04-19T06:09:59;136.90;;;130.10;;
56307;SDS011;42217;50.422;7.210;2023-04-19T06:12:25;140.13;;;133.23;;
56307;SDS011;42217;50.422;7.210;2023-04-19T06:14:51;139.60;;;132.20;;
56307;SDS011;42217;50.422;7.210;2023-04-19T06:17:16;140.27;;;133.10;;
56307;SDS011;42217;50.422;7.210;2023-04-19T06:19:47;141.97;;;134.53;;
56307;SDS011;42217;50.422;7.210;2023-04-19T06:22:13;144.83;;;137.20;;
56307;SDS011;42217;50.422;7.210;2023-04-19T06:24:38;145.13;;;137.50;;
56307;SDS011;42217;50.422;7.210;2023-04-19T06:27:04;146.10;;;138.57;;
56307;SDS011;42217;50.422;7.210;2023-04-19T06:29:30;151.53;;;143.83;;
56307;SDS011;42217;50.422;7.210;2023-04-19T06:31:56;148.40;;;140.93;;
56307;SDS011;42217;50.422;7.210;2023-04-19T06:34:21;140.23;;;133.07;;
56307;SDS011;42217;50.422;7.210;2023-04-19T06:36:47;138.13;;;130.47;;
56307;SDS011;42217;50.422;7.210;2023-04-19T06:39:13;133.27;;;126.37;;
56307;SDS011;42217;50.422;7.210;2023-04-19T06:41:39;131.43;;;124.57;;
56307;SDS011;42217;50.422;7.210;2023-04-19T06:44:05;135.73;;;128.77;;
56307;SDS011;42217;50.422;7.210;2023-04-19T06:46:31;132.50;;;125.80;;
56307;SDS011;42217;50.422;7.210;2023-04-19T06:48:56;141.10;;;133.80;;
56307;SDS011;42217;50.422;7.210;2023-04-19T06:51:22;138.10;;;130.60;;
56307;SDS011;42217;50.422;7.210;2023-04-19T06:53:48;140.03;;;131.70;;
56307;SDS011;42217;50.422;7.210;2023-04-19T06:56:15;130.70;;;123.17;;
56307;SDS011;42217;50.422;7.210;2023-04-19T06:58:40;125.88;;;119.38;;
56307;SDS011;42217;50.422;7.210;2023-04-19T07:01:06;137.50;;;130.37;;
56307;SDS011;42217;50.422;7.210;2023-04-19T07:03:32;130.90;;;124.07;;
56307;SDS011;42217;50.422;7.210;2023-04-19T07:05:57;131.77;;;124.87;;
56307;SDS011;42217;50.422;7.210;2023-04-19T07:08:23;135.67;;;128.67;;
56307;SDS011;42217;50.422;7.210;2023-04-19T07:10:50;137.77;;;130.53;;
56307;SDS011;42217;50.422;7.210;2023-04-19T07:13:17;119.40;;;113.00;;
56307;SDS011;42217;50.422;7.210;2023-04-19T07:15:42;130.30;;;123.77;;
56307;SDS011;42217;50.422;7.210;2023-04-19T07:18:08;128.73;;;121.97;;
56307;SDS011;42217;50.422;7.210;2023-04-19T07:20:39;117.20;;;111.00;;
56307;SDS011;42217;50.422;7.210;2023-04-19T07:23:08;123.63;;;116.77;;
56307;SDS011;42217;50.422;7.210;2023-04-19T07:25:34;119.03;;;112.53;;
56307;SDS011;42217;50.422;7.210;2023-04-19T07:28:00;104.95;;;98.88;;
56307;SDS011;42217;50.422;7.210;2023-04-19T07:30:25;107.82;;;101.82;;
56307;SDS011;42217;50.422;7.210;2023-04-19T07:32:51;113.07;;;107.20;;
56307;SDS011;42217;50.422;7.210;2023-04-19T07:35:17;106.38;;;100.20;;
56307;SDS011;42217;50.422;7.210;2023-04-19T07:37:43;105.80;;;100.10;;
56307;SDS011;42217;50.422;7.210;2023-04-19T07:40:09;102.57;;;97.18;;
56307;SDS011;42217;50.422;7.210;2023-04-19T07:42:35;94.53;;;88.82;;
56307;SDS011;42217;50.422;7.210;2023-04-19T07:45:01;93.93;;;88.05;;
56307;SDS011;42217;50.422;7.210;2023-04-19T07:47:27;84.05;;;79.45;;
56307;SDS011;42217;50.422;7.210;2023-04-19T07:49:53;83.75;;;79.25;;
56307;SDS011;42217;50.422;7.210;2023-04-19T07:52:20;81.10;;;76.80;;
56307;SDS011;42217;50.422;7.210;2023-04-19T07:54:45;76.03;;;71.82;;
56307;SDS011;42217;50.422;7.210;2023-04-19T07:57:11;76.40;;;72.30;;
56307;SDS011;42217;50.422;7.210;2023-04-19T07:59:37;73.90;;;69.90;;
56307;SDS011;42217;50.422;7.210;2023-04-19T08:02:02;76.78;;;72.32;;
56307;SDS011;42217;50.422;7.210;2023-04-19T08:04:28;73.88;;;69.55;;
56307;SDS011;42217;50.422;7.210;2023-04-19T08:06:54;75.93;;;71.60;;
56307;SDS011;42217;50.422;7.210;2023-04-19T08:09:20;78.05;;;73.85;;
56307;SDS011;42217;50.422;7.210;2023-04-19T08:11:46;78.30;;;74.00;;
56307;SDS011;42217;50.422;7.210;2023-04-19T08:14:12;74.55;;;70.55;;
56307;SDS011;42217;50.422;7.210;2023-04-19T08:16:37;73.70;;;69.57;;
56307;SDS011;42217;50.422;7.210;2023-04-19T08:19:03;76.45;;;71.72;;
56307;SDS011;42217;50.422;7.210;2023-04-19T08:21:29;72.43;;;68.43;;
56307;SDS011;42217;50.422;7.210;2023-04-19T08:23:55;72.38;;;68.25;;
56307;SDS011;42217;50.422;7.210;2023-04-19T08:26:21;69.25;;;65.55;;
56307;SDS011;42217;50.422;7.210;2023-04-19T08:28:47;68.57;;;64.57;;
56307;SDS011;42217;50.422;7.210;2023-04-19T08:31:14;67.50;;;63.55;;
56307;SDS011;42217;50.422;7.210;2023-04-19T08:33:40;72.75;;;68.78;;
56307;SDS011;42217;50.422;7.210;2023-04-19T08:36:06;66.38;;;62.67;;
56307;SDS011;42217;50.422;7.210;2023-04-19T08:38:32;64.10;;;60.17;;
56307;SDS011;42217;50.422;7.210;2023-04-19T08:40:58;66.20;;;62.30;;
56307;SDS011;42217;50.422;7.210;2023-04-19T08:43:25;76.78;;;72.28;;
56307;SDS011;42217;50.422;7.210;2023-04-19T08:45:57;75.45;;;71.07;;
56307;SDS011;42217;50.422;7.210;2023-04-19T08:48:23;88.15;;;83.32;;
56307;SDS011;42217;50.422;7.210;2023-04-19T08:50:51;81.13;;;76.63;;
56307;SDS011;42217;50.422;7.210;2023-04-19T08:53:18;77.40;;;73.00;;
56307;SDS011;42217;50.422;7.210;2023-04-19T08:55:44;82.30;;;77.78;;
56307;SDS011;42217;50.422;7.210;2023-04-19T08:58:10;85.25;;;80.03;;
56307;SDS011;42217;50.422;7.210;2023-04-19T09:00:38;79.25;;;74.68;;
56307;SDS011;42217;50.422;7.210;2023-04-19T09:03:05;81.78;;;77.45;;
56307;SDS011;42217;50.422;7.210;2023-04-19T09:05:32;81.80;;;77.53;;
56307;SDS011;42217;50.422;7.210;2023-04-19T09:11:00;86.50;;;81.88;;
56307;SDS011;42217;50.422;7.210;2023-04-19T09:13:26;100.90;;;95.35;;
56307;SDS011;42217;50.422;7.210;2023-04-19T09:15:53;90.82;;;85.70;;
56307;SDS011;42217;50.422;7.210;2023-04-19T09:18:21;91.68;;;86.40;;
56307;SDS011;42217;50.422;7.210;2023-04-19T09:20:49;91.18;;;86.28;;
56307;SDS011;42217;50.422;7.210;2023-04-19T09:23:21;84.85;;;80.20;;
56307;SDS011;42217;50.422;7.210;2023-04-19T09:25:53;84.95;;;80.50;;
56307;SDS011;42217;50.422;7.210;2023-04-19T09:28:19;73.38;;;69.10;;
56307;SDS011;42217;50.422;7.210;2023-04-19T09:30:45;68.82;;;64.97;;
56307;SDS011;42217;50.422;7.210;2023-04-19T09:33:11;63.08;;;59.28;;
56307;SDS011;42217;50.422;7.210;2023-04-19T09:35:45;61.30;;;57.53;;
56307;SDS011;42217;50.422;7.210;2023-04-19T09:38:13;56.42;;;53.33;;
56307;SDS011;42217;50.422;7.210;2023-04-19T09:40:40;61.72;;;58.33;;
56307;SDS011;42217;50.422;7.210;2023-04-19T09:43:06;62.78;;;58.50;;
56307;SDS011;42217;50.422;7.210;2023-04-19T09:45:42;71.43;;;67.63;;
56307;SDS011;42217;50.422;7.210;2023-04-19T09:48:09;79.82;;;75.10;;
56307;SDS011;42217;50.422;7.210;2023-04-19T09:50:38;82.95;;;78.32;;
56307;SDS011;42217;50.422;7.210;2023-04-19T09:53:19;74.28;;;70.38;;
56307;SDS011;42217;50.422;7.210;2023-04-19T09:55:45;81.75;;;77.18;;
56307;SDS011;42217;50.422;7.210;2023-04-19T09:58:12;79.75;;;75.70;;
56307;SDS011;42217;50.422;7.210;2023-04-19T10:00:38;92.25;;;87.20;;
56307;SDS011;42217;50.422;7.210;2023-04-19T10:03:06;86.97;;;82.22;;
56307;SDS011;42217;50.422;7.210;2023-04-19T10:05:35;104.93;;;99.45;;
56307;SDS011;42217;50.422;7.210;2023-04-19T10:08:03;92.40;;;87.70;;
56307;SDS011;42217;50.422;7.210;2023-04-19T10:10:35;88.38;;;83.57;;
56307;SDS011;42217;50.422;7.210;2023-04-19T10:13:04;108.47;;;102.10;;
56307;SDS011;42217;50.422;7.210;2023-04-19T10:15:33;106.32;;;101.07;;
56307;SDS011;42217;50.422;7.210;2023-04-19T10:18:00;80.85;;;76.60;;
56307;SDS011;42217;50.422;7.210;2023-04-19T10:20:40;78.43;;;74.03;;
56307;SDS011;42217;50.422;7.210;2023-04-19T10:23:14;64.80;;;61.20;;
56307;SDS011;42217;50.422;7.210;2023-04-19T10:25:44;87.75;;;81.43;;
56307;SDS011;42217;50.422;7.210;2023-04-19T10:30:51;73.57;;;69.45;;
56307;SDS011;42217;50.422;7.210;2023-04-19T10:33:28;71.97;;;68.15;;
56307;SDS011;42217;50.422;7.210;2023-04-19T10:35:56;79.07;;;74.88;;
56307;SDS011;42217;50.422;7.210;2023-04-19T10:41:04;83.97;;;79.40;;
56307;SDS011;42217;50.422;7.210;2023-04-19T10:43:35;103.90;;;98.67;;
56307;SDS011;42217;50.422;7.210;2023-04-19T10:46:12;76.35;;;72.38;;
56307;SDS011;42217;50.422;7.210;2023-04-19T10:48:39;70.93;;;66.75;;
56307;SDS011;42217;50.422;7.210;2023-04-19T10:51:37;77.40;;;73.55;;
56307;SDS011;42217;50.422;7.210;2023-04-19T10:54:26;198.70;;;189.02;;
56307;SDS011;42217;50.422;7.210;2023-04-19T10:57:02;96.60;;;91.95;;
56307;SDS011;42217;50.422;7.210;2023-04-19T10:59:32;117.95;;;112.03;;
56307;SDS011;42217;50.422;7.210;2023-04-19T11:02:00;99.90;;;94.57;;
56307;SDS011;42217;50.422;7.210;2023-04-19T11:06:56;86.63;;;82.32;;
56307;SDS011;42217;50.422;7.210;2023-04-19T11:09:27;95.07;;;90.57;;
56307;SDS011;42217;50.422;7.210;2023-04-19T11:12:03;95.15;;;90.53;;
56307;SDS011;42217;50.422;7.210;2023-04-19T11:17:22;84.40;;;80.40;;
56307;SDS011;42217;50.422;7.210;2023-04-19T11:20:01;93.70;;;89.38;;
56307;SDS011;42217;50.422;7.210;2023-04-19T11:22:43;96.15;;;91.55;;
56307;SDS011;42217;50.422;7.210;2023-04-19T11:25:10;82.43;;;78.50;;
56307;SDS011;42217;50.422;7.210;2023-04-19T11:27:37;81.75;;;77.63;;
56307;SDS011;42217;50.422;7.210;2023-04-19T11:30:13;74.70;;;70.60;;
56307;SDS011;42217;50.422;7.210;2023-04-19T11:32:48;73.43;;;70.05;;
56307;SDS011;42217;50.422;7.210;2023-04-19T11:35:20;77.07;;;73.43;;
56307;SDS011;42217;50.422;7.210;2023-04-19T11:37:46;77.43;;;73.47;;
56307;SDS011;42217;50.422;7.210;2023-04-19T11:40:16;78.00;;;74.20;;
56307;SDS011;42217;50.422;7.210;2023-04-19T11:42:43;85.65;;;81.63;;
56307;SDS011;42217;50.422;7.210;2023-04-19T11:45:09;76.15;;;72.57;;
56307;SDS011;42217;50.422;7.210;2023-04-19T11:47:46;81.90;;;78.00;;
56307;SDS011;42217;50.422;7.210;2023-04-19T11:53:09;77.60;;;73.90;;
56307;SDS011;42217;50.422;7.210;2023-04-19T11:55:35;74.50;;;70.85;;
56307;SDS011;42217;50.422;7.210;2023-04-19T11:58:00;127.40;;;120.95;;
56307;SDS011;42217;50.422;7.210;2023-04-19T12:00:26;92.15;;;87.78;;
56307;SDS011;42217;50.422;7.210;2023-04-19T12:02:55;105.97;;;100.75;;
56307;SDS011;42217;50.422;7.210;2023-04-19T12:05:22;91.20;;;86.57;;
56307;SDS011;42217;50.422;7.210;2023-04-19T12:10:28;74.40;;;70.72;;
56307;SDS011;42217;50.422;7.210;2023-04-19T12:12:55;77.85;;;74.28;;
56307;SDS011;42217;50.422;7.210;2023-04-19T12:15:20;71.72;;;68.32;;
56307;SDS011;42217;50.422;7.210;2023-04-19T12:17:57;69.25;;;65.93;;
56307;SDS011;42217;50.422;7.210;2023-04-19T12:20:30;70.50;;;67.20;;
56307;SDS011;42217;50.422;7.210;2023-04-19T12:22:57;68.15;;;64.90;;
56307;SDS011;42217;50.422;7.210;2023-04-19T12:25:26;70.07;;;66.72;;
56307;SDS011;42217;50.422;7.210;2023-04-19T12:27:56;85.80;;;81.15;;
56307;SDS011;42217;50.422;7.210;2023-04-19T12:30:22;72.35;;;68.53;;
56307;SDS011;42217;50.422;7.210;2023-04-19T12:32:48;72.53;;;69.18;;
56307;SDS011;42217;50.422;7.210;2023-04-19T12:35:15;78.93;;;75.15;;
56307;SDS011;42217;50.422;7.210;2023-04-19T12:37:42;80.63;;;76.93;;
56307;SDS011;42217;50.422;7.210;2023-04-19T12:40:07;77.25;;;73.50;;
56307;SDS011;42217;50.422;7.210;2023-04-19T12:42:35;79.32;;;75.28;;
56307;SDS011;42217;50.422;7.210;2023-04-19T12:45:01;76.97;;;73.28;;
56307;SDS011;42217;50.422;7.210;2023-04-19T12:47:26;154.50;;;147.10;;
56307;SDS011;42217;50.422;7.210;2023-04-19T12:49:52;90.45;;;86.25;;
56307;SDS011;42217;50.422;7.210;2023-04-19T12:52:20;117.25;;;111.50;;
56307;SDS011;42217;50.422;7.210;2023-04-19T12:54:46;162.85;;;154.88;;
56307;SDS011;42217;50.422;7.210;2023-04-19T12:57:11;116.43;;;111.00;;
56307;SDS011;42217;50.422;7.210;2023-04-19T12:59:37;97.57;;;93.15;;
56307;SDS011;42217;50.422;7.210;2023-04-19T13:02:04;118.53;;;112.90;;
56307;SDS011;42217;50.422;7.210;2023-04-19T13:04:30;108.50;;;103.65;;
56307;SDS011;42217;50.422;7.210;2023-04-19T13:06:55;127.45;;;121.68;;
56307;SDS011;42217;50.422;7.210;2023-04-19T13:09:21;160.30;;;152.35;;
56307;SDS011;42217;50.422;7.210;2023-04-19T13:11:47;118.70;;;113.47;;
56307;SDS011;42217;50.422;7.210;2023-04-19T13:14:13;107.30;;;101.57;;
56307;SDS011;42217;50.422;7.210;2023-04-19T13:16:38;214.63;;;203.55;;
56307;SDS011;42217;50.422;7.210;2023-04-19T13:19:04;125.65;;;119.38;;
56307;SDS011;42217;50.422;7.210;2023-04-19T13:21:30;107.45;;;102.70;;
56307;SDS011;42217;50.422;7.210;2023-04-19T13:23:58;174.93;;;166.23;;
56307;SDS011;42217;50.422;7.210;2023-04-19T13:26:24;157.70;;;150.68;;
56307;SDS011;42217;50.422;7.210;2023-04-19T13:28:50;141.00;;;134.50;;
56307;SDS011;42217;50.422;7.210;2023-04-19T13:31:17;116.72;;;111.43;;
56307;SDS011;42217;50.422;7.210;2023-04-19T13:33:42;105.57;;;100.40;;
56307;SDS011;42217;50.422;7.210;2023-04-19T13:36:08;107.75;;;102.50;;
56307;SDS011;42217;50.422;7.210;2023-04-19T13:38:34;86.05;;;82.25;;
56307;SDS011;42217;50.422;7.210;2023-04-19T13:41:01;89.88;;;85.88;;
56307;SDS011;42217;50.422;7.210;2023-04-19T13:43:27;92.50;;;88.18;;
56307;SDS011;42217;50.422;7.210;2023-04-19T13:45:53;110.30;;;105.35;;
56307;SDS011;42217;50.422;7.210;2023-04-19T13:48:18;88.18;;;83.85;;
56307;SDS011;42217;50.422;7.210;2023-04-19T13:50:44;78.15;;;74.15;;
56307;SDS011;42217;50.422;7.210;2023-04-19T13:53:10;93.43;;;88.97;;
56307;SDS011;42217;50.422;7.210;2023-04-19T13:55:36;82.57;;;78.78;;
56307;SDS011;42217;50.422;7.210;2023-04-19T13:58:01;72.68;;;69.43;;
56307;SDS011;42217;50.422;7.210;2023-04-19T14:00:27;65.78;;;62.72;;
56307;SDS011;42217;50.422;7.210;2023-04-19T14:02:54;68.68;;;65.10;;
56307;SDS011;42217;50.422;7.210;2023-04-19T14:05:20;71.25;;;67.72;;
56307;SDS011;42217;50.422;7.210;2023-04-19T14:07:46;61.25;;;58.45;;
56307;SDS011;42217;50.422;7.210;2023-04-19T14:10:11;64.85;;;61.45;;
56307;SDS011;42217;50.422;7.210;2023-04-19T14:12:37;64.30;;;61.05;;
56307;SDS011;42217;50.422;7.210;2023-04-19T14:15:03;66.28;;;63.28;;
56307;SDS011;42217;50.422;7.210;2023-04-19T14:17:29;64.35;;;61.22;;
56307;SDS011;42217;50.422;7.210;2023-04-19T14:19:55;62.78;;;59.97;;
56307;SDS011;42217;50.422;7.210;2023-04-19T14:22:21;59.22;;;56.58;;
56307;SDS011;42217;50.422;7.210;2023-04-19T14:24:46;63.00;;;59.97;;